createdAt,value
2017-11-24T00:00:09.333Z,70.20
2017-11-24T00:02:35.575Z,70.20
2017-11-24T00:05:01.757Z,70.80
2017-11-24T00:07:28.022Z,71.20
2017-11-24T00:09:54.231Z,70.90
2017-11-24T00:12:20.488Z,70.90
2017-11-24T00:14:46.655Z,70.70
2017-11-24T00:17:12.936Z,69.60
2017-11-24T00:19:39.166Z,70.70
2017-11-24T00:22:05.398Z,71.00
2017-11-24T00:24:31.650Z,71.50
2017-11-24T00:26:58.596Z,70.10
2017-11-24T00:29:25.524Z,70.40
2017-11-24T00:31:51.814Z,70.40
2017-11-24T00:34:18.081Z,70.50
2017-11-24T00:36:44.327Z,70.60
2017-11-24T00:39:11.313Z,70.50
2017-11-24T00:41:37.476Z,70.40
2017-11-24T00:44:04.644Z,70.80
2017-11-24T00:46:31.667Z,70.90
2017-11-24T00:48:57.932Z,70.80
2017-11-24T00:51:24.945Z,71.10
2017-11-24T00:53:51.140Z,71.10
2017-11-24T00:56:17.296Z,70.50
2017-11-24T00:58:43.504Z,70.90
2017-11-24T01:01:09.725Z,71.60
2017-11-24T01:03:35.968Z,71.50
2017-11-24T01:06:02.243Z,70.50
2017-11-24T01:08:29.183Z,70.90
2017-11-24T01:10:55.475Z,70.90
2017-11-24T01:13:21.673Z,70.40
2017-11-24T01:15:47.906Z,71.30
2017-11-24T01:18:14.128Z,71.10
2017-11-24T01:20:40.349Z,71.20
2017-11-24T01:23:06.607Z,71.20
2017-11-24T01:25:32.900Z,71.00
2017-11-24T01:27:59.120Z,71.00
2017-11-24T01:30:26.101Z,71.90
2017-11-24T01:32:52.293Z,71.80
2017-11-24T01:35:19.228Z,71.60
2017-11-24T01:37:46.205Z,71.20
2017-11-24T01:40:12.444Z,71.00
2017-11-24T01:42:38.664Z,71.10
2017-11-24T01:45:04.869Z,71.60
2017-11-24T01:47:31.826Z,71.30
2017-11-24T01:55:58.020Z,71.50
2017-11-24T01:58:24.272Z,71.50
2017-11-24T02:00:50.527Z,71.80
2017-11-24T02:03:17.553Z,72.50
2017-11-24T02:05:43.830Z,71.70
2017-11-24T02:08:10.043Z,71.80
2017-11-24T02:10:37.042Z,71.40
2017-11-24T02:13:03.325Z,71.40
2017-11-24T02:15:30.307Z,71.90
2017-11-24T02:17:56.493Z,71.80
2017-11-24T02:20:23.472Z,72.00
2017-11-24T02:22:49.728Z,72.00
2017-11-24T02:25:15.941Z,72.00
2017-11-24T02:27:42.189Z,72.10
2017-11-24T02:30:09.405Z,71.60
2017-11-24T02:32:35.693Z,71.70
2017-11-24T02:35:02.548Z,72.80
2017-11-24T02:37:29.552Z,72.10
2017-11-24T02:39:55.833Z,72.00
2017-11-24T02:42:22.119Z,72.50
2017-11-24T02:44:48.437Z,72.20
2017-11-24T02:47:14.710Z,72.30
2017-11-24T02:49:41.740Z,71.70
2017-11-24T02:52:08.006Z,71.70
2017-11-24T02:54:34.247Z,71.80
2017-11-24T02:57:00.508Z,71.70
2017-11-24T02:59:26.776Z,71.70
2017-11-24T03:01:53.709Z,72.00
2017-11-24T03:04:19.993Z,72.00
2017-11-24T03:06:46.261Z,72.00
2017-11-24T03:09:12.529Z,71.90
2017-11-24T03:11:38.793Z,72.10
2017-11-24T03:14:05.015Z,71.90
2017-11-24T03:16:32.207Z,72.20
2017-11-24T03:18:58.496Z,72.00
2017-11-24T03:21:24.719Z,71.90
2017-11-24T03:23:50.984Z,72.40
2017-11-24T03:26:17.246Z,71.40
2017-11-24T03:28:43.485Z,72.00
2017-11-24T03:31:09.683Z,71.80
2017-11-24T03:33:35.940Z,71.80
2017-11-24T03:36:03.174Z,72.10
2017-11-24T03:38:30.187Z,71.60
2017-11-24T03:40:56.461Z,71.60
2017-11-24T03:43:23.354Z,70.60
2017-11-24T03:45:49.644Z,70.60
2017-11-24T03:48:16.494Z,71.60
2017-11-24T03:50:42.711Z,71.90
2017-11-24T03:53:09.541Z,71.70
2017-11-24T03:55:36.539Z,71.70
2017-11-24T03:58:02.786Z,71.60
2017-11-24T04:00:29.059Z,71.20
2017-11-24T04:02:55.307Z,70.70
2017-11-24T04:05:21.508Z,71.30
2017-11-24T04:07:48.460Z,71.10
2017-11-24T04:10:14.752Z,71.10
2017-11-24T04:12:41.944Z,71.10
2017-11-24T04:15:08.165Z,70.80
2017-11-24T04:17:34.467Z,70.50
2017-11-24T04:20:00.741Z,70.40
2017-11-24T04:22:27.091Z,71.10
2017-11-24T04:24:53.325Z,70.60
2017-11-24T04:27:19.596Z,69.70
2017-11-24T04:29:46.574Z,69.60
2017-11-24T04:32:12.752Z,69.50
2017-11-24T04:34:38.966Z,69.10
2017-11-24T04:37:05.224Z,69.60
2017-11-24T04:39:32.170Z,70.20
2017-11-24T04:41:58.493Z,70.20
2017-11-24T04:44:24.808Z,69.70
2017-11-24T04:46:51.064Z,69.80
2017-11-24T04:49:18.128Z,69.50
2017-11-24T04:51:44.332Z,69.50
2017-11-24T04:54:10.619Z,70.00
2017-11-24T04:56:36.897Z,69.80
2017-11-24T04:59:03.952Z,70.10
2017-11-24T05:01:30.968Z,69.20
2017-11-24T05:03:57.185Z,69.20
2017-11-24T05:06:23.414Z,70.00
2017-11-24T05:08:50.262Z,71.00
2017-11-24T05:11:16.535Z,70.80
2017-11-24T05:13:42.768Z,70.00
2017-11-24T05:16:09.068Z,69.90
2017-11-24T05:18:36.133Z,70.00
2017-11-24T05:21:03.044Z,69.20
2017-11-24T05:23:29.237Z,69.20
2017-11-24T05:25:55.558Z,69.80
2017-11-24T05:28:21.795Z,70.00
2017-11-24T05:30:47.969Z,70.40
2017-11-24T05:33:14.207Z,70.40
2017-11-24T05:35:41.176Z,70.80
2017-11-24T05:38:07.393Z,70.80
2017-11-24T05:40:34.316Z,70.90
2017-11-24T05:43:00.537Z,70.90
2017-11-24T05:45:26.793Z,71.00
2017-11-24T05:47:53.049Z,71.00
2017-11-24T05:50:19.190Z,72.10
2017-11-24T05:52:45.412Z,71.50
2017-11-24T05:55:11.631Z,71.20
2017-11-24T05:57:37.814Z,71.60
2017-11-24T06:00:04.084Z,70.90
2017-11-24T06:02:30.338Z,71.30
2017-11-24T06:04:56.619Z,71.50
2017-11-24T06:07:23.687Z,71.60
2017-11-24T06:09:49.925Z,71.60
2017-11-24T06:12:16.127Z,72.40
2017-11-24T06:14:43.099Z,72.30
2017-11-24T06:17:09.289Z,72.20
2017-11-24T06:19:35.568Z,72.00
2017-11-24T06:22:01.801Z,72.20
2017-11-24T06:24:28.004Z,71.90
2017-11-24T06:26:54.253Z,71.70
2017-11-24T06:29:20.473Z,72.20
2017-11-24T06:31:46.725Z,72.10
2017-11-24T06:34:25.922Z,72.20
2017-11-24T06:36:52.180Z,72.20
2017-11-24T06:39:18.377Z,72.40
2017-11-24T06:41:44.551Z,72.50
2017-11-24T06:44:11.565Z,71.90
2017-11-24T06:46:37.769Z,71.90
2017-11-24T06:49:04.014Z,72.10
2017-11-24T06:51:30.260Z,72.00
2017-11-24T06:53:56.540Z,72.50
2017-11-24T06:56:22.767Z,72.40
2017-11-24T06:58:49.044Z,72.50
2017-11-24T07:01:15.344Z,72.30
2017-11-24T07:03:41.609Z,71.90
2017-11-24T07:06:07.857Z,71.50
2017-11-24T07:08:34.840Z,71.30
2017-11-24T07:11:01.070Z,71.30
2017-11-24T07:13:27.295Z,70.90
2017-11-24T07:18:56.864Z,71.10
2017-11-24T07:21:23.097Z,70.90
2017-11-24T07:23:49.346Z,70.60
2017-11-24T07:26:15.629Z,71.10
2017-11-24T07:28:54.339Z,70.00
2017-11-24T07:31:20.528Z,70.40
2017-11-24T07:33:46.722Z,70.20
2017-11-24T07:36:23.531Z,70.60
2017-11-24T07:38:50.543Z,69.80
2017-11-24T07:41:16.834Z,69.70
2017-11-24T07:43:43.094Z,68.30
2017-11-24T07:46:09.306Z,68.00
2017-11-24T07:48:35.526Z,67.10
2017-11-24T07:51:01.764Z,67.80
2017-11-24T07:53:27.933Z,68.00
2017-11-24T07:55:54.127Z,68.10
2017-11-24T07:58:20.389Z,68.00
2017-11-24T08:00:47.434Z,66.60
2017-11-24T08:03:13.615Z,66.60
2017-11-24T08:05:39.992Z,65.80
2017-11-24T08:08:06.289Z,66.40
2017-11-24T08:10:32.493Z,66.00
2017-11-24T08:12:58.678Z,66.10
2017-11-24T08:15:24.881Z,65.40
2017-11-24T08:17:51.082Z,66.20
2017-11-24T08:20:17.359Z,65.00
2017-11-24T08:22:45.247Z,64.40
2017-11-24T08:25:12.227Z,64.50
2017-11-24T08:27:38.393Z,64.50
2017-11-24T08:32:57.882Z,65.10
2017-11-24T08:35:24.108Z,65.10
2017-11-24T08:37:51.067Z,65.10
2017-11-24T08:40:17.240Z,65.10
2017-11-24T08:42:43.482Z,63.60
2017-11-24T08:45:09.646Z,63.90
2017-11-24T08:47:41.833Z,64.50
2017-11-24T08:50:08.018Z,65.70
2017-11-24T08:52:34.977Z,64.20
2017-11-24T08:55:01.219Z,64.10
2017-11-24T08:57:27.414Z,64.20
2017-11-24T08:59:54.270Z,64.10
2017-11-24T09:02:21.278Z,64.10
2017-11-24T09:04:47.466Z,64.10
2017-11-24T09:07:13.653Z,63.90
2017-11-24T09:09:39.844Z,64.70
2017-11-24T09:12:06.078Z,64.20
2017-11-24T09:14:32.362Z,64.20
2017-11-24T09:16:58.596Z,63.40
2017-11-24T09:19:24.770Z,63.80
2017-11-24T09:21:50.954Z,63.10
2017-11-24T09:24:17.205Z,63.00
2017-11-24T09:26:43.386Z,63.20
2017-11-24T09:29:09.638Z,64.00
2017-11-24T09:31:35.893Z,60.60
2017-11-24T09:34:02.146Z,56.50
2017-11-24T09:36:28.356Z,56.10
2017-11-24T09:38:54.517Z,57.40
2017-11-24T09:41:20.706Z,57.00
2017-11-24T09:43:46.879Z,57.80
2017-11-24T09:46:13.117Z,58.80
2017-11-24T09:48:40.020Z,59.50
2017-11-24T09:51:06.190Z,59.50
2017-11-24T09:53:33.506Z,61.30
2017-11-24T09:55:59.722Z,61.20
2017-11-24T09:58:25.875Z,61.20
2017-11-24T10:00:52.145Z,62.20
2017-11-24T10:03:18.352Z,61.00
2017-11-24T10:05:45.342Z,60.90
2017-11-24T10:08:11.578Z,60.90
2017-11-24T10:10:37.766Z,61.20
2017-11-24T10:13:04.021Z,61.30
2017-11-24T10:15:30.243Z,61.70
2017-11-24T10:17:56.449Z,61.70
2017-11-24T10:20:23.401Z,61.80
2017-11-24T10:22:50.323Z,61.70
2017-11-24T10:25:17.251Z,60.50
2017-11-24T10:27:43.440Z,60.30
2017-11-24T10:30:09.699Z,59.80
2017-11-24T10:32:35.843Z,60.00
2017-11-24T10:35:01.994Z,59.00
2017-11-24T10:37:28.958Z,59.40
2017-11-24T10:39:55.113Z,59.40
2017-11-24T10:42:21.331Z,59.20
2017-11-24T10:44:47.511Z,59.40
2017-11-24T10:47:14.391Z,59.60
2017-11-24T10:49:40.612Z,59.60
2017-11-24T10:52:06.819Z,60.10
2017-11-24T10:54:33.753Z,60.30
2017-11-24T10:56:59.897Z,60.30
2017-11-24T10:59:26.842Z,60.40
2017-11-24T11:01:53.779Z,59.30
2017-11-24T11:04:20.691Z,58.50
2017-11-24T11:06:46.922Z,58.40
2017-11-24T11:09:13.100Z,54.00
2017-11-24T11:11:39.267Z,54.40
2017-11-24T11:14:05.521Z,54.80
2017-11-24T11:16:32.445Z,54.80
2017-11-24T11:18:58.609Z,54.80
2017-11-24T11:21:25.572Z,55.50
2017-11-24T11:23:51.758Z,55.50
2017-11-24T11:26:17.954Z,55.10
2017-11-24T11:28:44.237Z,53.40
2017-11-24T11:31:11.196Z,49.80
2017-11-24T11:33:38.093Z,51.00
2017-11-24T11:36:04.302Z,51.60
2017-11-24T11:38:30.461Z,52.80
2017-11-24T11:40:56.634Z,54.20
2017-11-24T11:43:22.859Z,55.90
2017-11-24T11:45:49.040Z,55.00
2017-11-24T11:48:15.269Z,55.20
2017-11-24T11:50:41.483Z,56.20
2017-11-24T11:53:07.667Z,56.50
2017-11-24T11:55:33.919Z,56.50
2017-11-24T11:58:07.000Z,55.90
2017-11-24T12:00:33.164Z,56.50
2017-11-24T12:02:59.345Z,56.60
2017-11-24T12:05:25.582Z,56.20
2017-11-24T12:07:51.813Z,56.20
2017-11-24T12:10:18.061Z,56.60
2017-11-24T12:12:44.310Z,56.40
2017-11-24T12:15:11.294Z,56.60
2017-11-24T12:17:37.442Z,56.70
2017-11-24T12:20:03.725Z,56.90
2017-11-24T12:22:30.703Z,57.40
2017-11-24T12:24:56.851Z,57.40
2017-11-24T12:27:23.082Z,57.70
2017-11-24T12:29:49.376Z,57.50
2017-11-24T12:32:15.551Z,57.70
2017-11-24T12:34:41.756Z,57.30
2017-11-24T12:37:07.949Z,57.40
2017-11-24T12:39:34.846Z,57.40
2017-11-24T12:42:01.025Z,57.40
2017-11-24T12:44:27.251Z,57.60
2017-11-24T12:46:53.459Z,57.70
2017-11-24T12:49:19.607Z,57.90
2017-11-24T12:51:46.542Z,57.70
2017-11-24T12:54:13.481Z,58.10
2017-11-24T12:56:40.406Z,56.10
2017-11-24T12:59:06.599Z,56.10
2017-11-24T13:01:32.735Z,55.60
2017-11-24T13:03:58.914Z,55.40
2017-11-24T13:06:25.910Z,56.60
2017-11-24T13:08:52.181Z,56.60
2017-11-24T13:11:19.101Z,57.80
2017-11-24T13:13:45.272Z,57.80
2017-11-24T13:16:11.418Z,58.00
2017-11-24T13:18:37.584Z,57.90
2017-11-24T13:21:03.766Z,57.90
2017-11-24T13:23:29.979Z,58.10
2017-11-24T13:25:56.228Z,58.80
2017-11-24T13:28:22.494Z,58.80
2017-11-24T13:30:48.703Z,59.20
2017-11-24T13:33:14.912Z,59.10
2017-11-24T13:35:41.060Z,59.10
2017-11-24T13:38:07.242Z,59.30
2017-11-24T13:40:34.202Z,60.70
2017-11-24T13:43:00.397Z,59.90
2017-11-24T13:45:26.577Z,60.40
2017-11-24T13:47:52.790Z,60.70
2017-11-24T13:50:18.912Z,60.70
2017-11-24T13:52:45.086Z,61.50
2017-11-24T13:55:11.270Z,61.00
2017-11-24T13:57:37.471Z,61.70
2017-11-24T14:00:04.365Z,62.10
2017-11-24T14:02:30.583Z,62.10
2017-11-24T14:04:56.774Z,62.50
2017-11-24T14:07:23.693Z,62.80
2017-11-24T14:09:49.877Z,62.80
2017-11-24T14:12:16.039Z,63.20
2017-11-24T14:14:42.231Z,63.20
2017-11-24T14:17:08.456Z,63.70
2017-11-24T14:19:34.631Z,64.10
2017-11-24T14:22:00.778Z,64.80
2017-11-24T14:24:27.718Z,65.70
2017-11-24T14:26:54.658Z,65.70
2017-11-24T14:29:20.884Z,65.70
2017-11-24T14:31:47.051Z,66.40
2017-11-24T14:34:13.182Z,67.60
2017-11-24T14:36:39.366Z,66.80
2017-11-24T14:39:05.585Z,67.50
2017-11-24T14:41:31.735Z,67.60
2017-11-24T14:43:58.679Z,68.00
2017-11-24T14:46:25.652Z,68.10
2017-11-24T14:48:51.833Z,68.10
2017-11-24T14:51:18.027Z,68.90
2017-11-24T14:53:44.247Z,69.00
2017-11-24T14:56:10.470Z,69.00
2017-11-24T14:58:36.622Z,69.10
2017-11-24T15:01:02.846Z,68.70
2017-11-24T15:03:29.017Z,69.40
2017-11-24T15:05:56.011Z,69.70
2017-11-24T15:08:22.220Z,69.70
2017-11-24T15:10:48.444Z,69.20
2017-11-24T15:13:14.664Z,70.00
2017-11-24T15:15:40.902Z,69.80
2017-11-24T15:18:07.842Z,69.40
2017-11-24T15:20:33.983Z,69.40
2017-11-24T15:23:00.218Z,70.10
2017-11-24T15:25:26.473Z,70.50
2017-11-24T15:27:52.709Z,71.00
2017-11-24T15:30:18.911Z,71.00
2017-11-24T15:32:45.087Z,70.70
2017-11-24T15:35:12.013Z,71.70
2017-11-24T15:37:38.242Z,71.60
2017-11-24T15:40:05.229Z,71.80
2017-11-24T15:42:31.419Z,71.60
2017-11-24T15:44:57.673Z,72.90
2017-11-24T15:47:24.632Z,72.50
2017-11-24T15:49:51.069Z,72.50
2017-11-24T15:52:17.222Z,72.60
2017-11-24T15:54:43.379Z,72.60
2017-11-24T15:57:09.622Z,73.10
2017-11-24T15:59:36.588Z,74.30
2017-11-24T16:02:02.735Z,74.30
2017-11-24T16:04:28.944Z,73.80
2017-11-24T16:06:55.213Z,74.40
2017-11-24T16:09:21.405Z,74.10
2017-11-24T16:11:47.583Z,74.60
2017-11-24T16:14:13.740Z,74.40
2017-11-24T16:16:40.653Z,74.10
2017-11-24T16:19:06.886Z,74.20
2017-11-24T16:21:33.055Z,75.00
2017-11-24T16:23:59.298Z,74.80
2017-11-24T16:26:25.500Z,74.50
2017-11-24T16:28:52.538Z,74.30
2017-11-24T16:31:19.518Z,75.70
2017-11-24T16:33:45.706Z,75.60
2017-11-24T16:36:12.716Z,75.90
2017-11-24T16:38:38.896Z,75.70
2017-11-24T16:41:05.822Z,79.10
2017-11-24T16:43:32.076Z,79.10
2017-11-24T16:45:58.341Z,78.10
2017-11-24T16:48:24.593Z,76.50
2017-11-24T16:50:50.798Z,76.90
2017-11-24T16:53:17.012Z,78.20
2017-11-24T16:55:43.197Z,78.20
2017-11-24T16:58:09.420Z,77.90
2017-11-24T17:00:35.647Z,78.60
2017-11-24T17:03:01.854Z,79.00
2017-11-24T17:05:28.026Z,79.10
2017-11-24T17:07:54.249Z,78.40
2017-11-24T17:10:21.226Z,79.50
2017-11-24T17:12:47.499Z,79.40
2017-11-24T17:15:13.774Z,79.20
2017-11-24T17:17:40.242Z,79.10
2017-11-24T17:20:06.494Z,78.70
2017-11-24T17:22:32.686Z,79.00
2017-11-24T17:24:58.866Z,78.70
2017-11-24T17:27:25.773Z,78.70
2017-11-24T17:29:52.028Z,78.70
2017-11-24T17:32:18.298Z,78.80
2017-11-24T17:34:44.869Z,77.90
2017-11-24T17:37:11.797Z,80.00
2017-11-24T17:39:38.052Z,79.20
2017-11-24T17:42:04.317Z,79.10
2017-11-24T17:44:31.249Z,78.30
2017-11-24T17:46:58.231Z,78.20
2017-11-24T17:49:24.455Z,78.10
2017-11-24T17:51:50.695Z,78.10
2017-11-24T17:54:16.887Z,78.40
2017-11-24T17:56:43.815Z,79.10
2017-11-24T17:59:10.074Z,79.10
2017-11-24T18:01:36.222Z,79.20
2017-11-24T18:04:02.390Z,80.00
2017-11-24T18:06:28.613Z,80.40
2017-11-24T18:08:54.800Z,80.60
2017-11-24T18:11:20.973Z,80.80
2017-11-24T18:13:47.176Z,80.80
2017-11-24T18:16:13.463Z,80.80
2017-11-24T18:18:39.723Z,81.60
2017-11-24T18:21:05.982Z,81.40
2017-11-24T18:23:32.201Z,81.80
2017-11-24T18:25:58.442Z,81.40
2017-11-24T18:28:24.778Z,81.10
2017-11-24T18:30:51.410Z,81.30
2017-11-24T18:33:17.691Z,81.70
2017-11-24T18:35:43.990Z,81.60
2017-11-24T18:38:11.014Z,81.90
2017-11-24T18:40:37.269Z,81.90
2017-11-24T18:43:04.297Z,82.20
2017-11-24T18:45:30.514Z,82.10
2017-11-24T18:47:56.762Z,82.70
2017-11-24T18:50:23.760Z,82.80
2017-11-24T18:52:49.984Z,82.60
2017-11-24T18:55:16.246Z,83.20
2017-11-24T18:57:42.444Z,82.80
2017-11-24T19:00:08.736Z,82.50
2017-11-24T19:02:35.661Z,83.20
2017-11-24T19:05:01.920Z,83.20
2017-11-24T19:07:29.011Z,83.10
2017-11-24T19:09:55.401Z,83.10
2017-11-24T19:12:22.375Z,83.40
2017-11-24T19:14:48.574Z,83.40
2017-11-24T19:17:16.554Z,84.00
2017-11-24T19:19:42.810Z,83.90
2017-11-24T19:22:09.001Z,83.90
2017-11-24T19:24:35.901Z,83.90
2017-11-24T19:27:02.352Z,83.90
2017-11-24T19:29:28.561Z,84.20
2017-11-24T19:31:54.813Z,83.70
2017-11-24T19:34:20.996Z,83.30
2017-11-24T19:36:47.246Z,83.30
2017-11-24T19:39:13.411Z,83.30
2017-11-24T19:41:40.741Z,84.30
2017-11-24T19:44:06.942Z,84.20
2017-11-24T19:46:33.247Z,84.50
2017-11-24T19:48:59.487Z,84.30
2017-11-24T19:51:25.674Z,83.90
2017-11-24T19:53:52.605Z,84.50
2017-11-24T19:56:19.574Z,84.20
2017-11-24T19:58:46.469Z,84.90
2017-11-24T20:01:12.703Z,84.80
2017-11-24T20:03:38.952Z,85.60
2017-11-24T20:06:05.210Z,84.60
2017-11-24T20:08:31.469Z,84.40
2017-11-24T20:10:57.708Z,85.40
2017-11-24T20:13:23.947Z,84.60
2017-11-24T20:15:50.180Z,84.60
2017-11-24T20:18:16.362Z,85.90
2017-11-24T20:20:42.553Z,85.00
2017-11-24T20:23:08.754Z,84.80
2017-11-24T20:25:34.931Z,85.50
2017-11-24T20:28:01.808Z,86.00
2017-11-24T20:30:27.982Z,85.90
2017-11-24T20:32:54.195Z,85.20
2017-11-24T20:35:20.490Z,85.10
2017-11-24T20:37:46.691Z,85.10
2017-11-24T20:40:13.640Z,85.00
2017-11-24T20:42:40.527Z,84.80
2017-11-24T20:45:06.703Z,84.80
2017-11-24T20:47:33.607Z,84.70
2017-11-24T20:49:59.759Z,84.70
2017-11-24T20:52:25.977Z,84.20
2017-11-24T20:54:52.950Z,84.00
2017-11-24T20:57:19.176Z,84.60
2017-11-24T20:59:45.368Z,84.40
2017-11-24T21:02:11.579Z,83.80
2017-11-24T21:04:37.727Z,84.20
2017-11-24T21:07:03.961Z,83.90
2017-11-24T21:09:30.214Z,84.30
2017-11-24T21:11:57.219Z,84.50
2017-11-24T21:14:23.411Z,84.50
2017-11-24T21:16:49.597Z,84.10
2017-11-24T21:19:15.762Z,83.80
2017-11-24T21:21:41.946Z,84.70
2017-11-24T21:24:08.111Z,84.40
2017-11-24T21:26:34.301Z,85.70
2017-11-24T21:29:00.500Z,84.90
2017-11-24T21:31:26.726Z,85.70
2017-11-24T21:33:52.940Z,85.00
2017-11-24T21:36:19.185Z,85.10
2017-11-24T21:38:45.351Z,85.40
2017-11-24T21:41:11.535Z,85.30
2017-11-24T21:43:41.727Z,84.90
2017-11-24T21:46:15.884Z,85.30
2017-11-24T21:48:42.946Z,85.10
2017-11-24T21:51:09.115Z,85.10
2017-11-24T21:53:35.345Z,85.70
2017-11-24T21:56:01.546Z,84.90
2017-11-24T21:58:28.502Z,85.60
2017-11-24T22:00:55.456Z,85.80
2017-11-24T22:03:21.681Z,85.70
2017-11-24T22:05:47.837Z,85.60
2017-11-24T22:08:14.036Z,85.50
2017-11-24T22:10:41.003Z,86.50
2017-11-24T22:13:07.147Z,86.50
2017-11-24T22:15:33.475Z,86.40
2017-11-24T22:17:59.680Z,86.00
2017-11-24T22:20:25.876Z,85.90
2017-11-24T22:22:52.068Z,86.00
2017-11-24T22:25:18.281Z,85.80
2017-11-24T22:27:44.534Z,85.70
2017-11-24T22:30:10.841Z,86.20
2017-11-24T22:32:37.136Z,85.70
2017-11-24T22:35:04.120Z,86.30
2017-11-24T22:37:30.293Z,86.40
2017-11-24T22:39:56.530Z,86.00
2017-11-24T22:42:23.463Z,84.90
2017-11-24T22:44:49.691Z,84.70
2017-11-24T22:47:15.955Z,86.00
2017-11-24T22:49:42.192Z,85.70
2017-11-24T22:52:08.418Z,85.10
2017-11-24T22:54:34.761Z,86.30
2017-11-24T22:57:00.953Z,85.30
2017-11-24T22:59:27.858Z,85.90
2017-11-24T23:01:54.062Z,85.90
2017-11-24T23:04:20.268Z,86.30
2017-11-24T23:06:46.512Z,85.10
2017-11-24T23:09:12.708Z,85.30
2017-11-24T23:11:39.706Z,85.30
2017-11-24T23:14:05.932Z,85.30
2017-11-24T23:16:32.139Z,84.80
2017-11-24T23:18:58.300Z,86.30
2017-11-24T23:21:24.460Z,85.60
2017-11-24T23:23:51.369Z,85.40
2017-11-24T23:26:17.589Z,85.40
2017-11-24T23:28:43.765Z,85.70
2017-11-24T23:31:10.725Z,85.00
2017-11-24T23:33:36.929Z,85.00
2017-11-24T23:36:03.863Z,85.20
2017-11-24T23:38:30.011Z,85.20
2017-11-24T23:40:56.937Z,85.30
2017-11-24T23:43:23.926Z,84.40
2017-11-24T23:48:43.768Z,84.60
2017-11-24T23:51:09.999Z,84.60
2017-11-24T23:53:36.201Z,85.00
2017-11-24T23:56:03.191Z,86.40
2017-11-24T23:58:29.428Z,85.60
